sensor_id;sensor_type;location;lat;lon;timestamp;pressure;altitude;pressure_sealevel;temperature;humidity
46836;BME280;32573;51.290;6.926;2023-02-16T00:01:40;101090.16;;;5.46;100.00
46836;BME280;32573;51.290;6.926;2023-02-16T00:04:14;101089.44;;;5.49;100.00
46836;BME280;32573;51.290;6.926;2023-02-16T00:06:48;101076.59;;;5.50;100.00
46836;BME280;32573;51.290;6.926;2023-02-16T00:09:17;101088.75;;;5.51;100.00
46836;BME280;32573;51.290;6.926;2023-02-16T00:11:46;101080.88;;;5.50;100.00
46836;BME280;32573;51.290;6.926;2023-02-16T00:14:35;101079.88;;;5.48;100.00
46836;BME280;32573;51.290;6.926;2023-02-16T00:17:05;101076.19;;;5.44;100.00
46836;BME280;32573;51.290;6.926;2023-02-16T00:19:35;101078.69;;;5.43;100.00
46836;BME280;32573;51.290;6.926;2023-02-16T00:22:08;101078.50;;;5.39;100.00
46836;BME280;32573;51.290;6.926;2023-02-16T00:24:44;101076.69;;;5.38;100.00
46836;BME280;32573;51.290;6.926;2023-02-16T00:27:15;101075.69;;;5.36;100.00
46836;BME280;32573;51.290;6.926;2023-02-16T00:29:45;101077.31;;;5.34;100.00
46836;BME280;32573;51.290;6.926;2023-02-16T00:32:16;101075.44;;;5.32;100.00
46836;BME280;32573;51.290;6.926;2023-02-16T00:34:46;101075.13;;;5.27;100.00
46836;BME280;32573;51.290;6.926;2023-02-16T00:37:17;101067.16;;;5.24;100.00
46836;BME280;32573;51.290;6.926;2023-02-16T00:39:50;101067.75;;;5.20;100.00
46836;BME280;32573;51.290;6.926;2023-02-16T00:42:22;101063.97;;;5.15;100.00
46836;BME280;32573;51.290;6.926;2023-02-16T00:44:56;101056.78;;;5.11;100.00
46836;BME280;32573;51.290;6.926;2023-02-16T00:47:29;101056.69;;;5.09;100.00
46836;BME280;32573;51.290;6.926;2023-02-16T00:50:00;101062.59;;;5.07;100.00
46836;BME280;32573;51.290;6.926;2023-02-16T00:52:33;101065.97;;;5.06;100.00
46836;BME280;32573;51.290;6.926;2023-02-16T00:55:07;101060.78;;;5.06;100.00
46836;BME280;32573;51.290;6.926;2023-02-16T00:57:39;101052.22;;;5.07;100.00
46836;BME280;32573;51.290;6.926;2023-02-16T01:00:18;101042.53;;;5.04;100.00
46836;BME280;32573;51.290;6.926;2023-02-16T01:02:51;101051.97;;;5.04;100.00
46836;BME280;32573;51.290;6.926;2023-02-16T01:05:21;101052.69;;;5.01;100.00
46836;BME280;32573;51.290;6.926;2023-02-16T01:08:04;101057.09;;;5.02;100.00
46836;BME280;32573;51.290;6.926;2023-02-16T01:10:56;101058.75;;;5.02;100.00
46836;BME280;32573;51.290;6.926;2023-02-16T01:13:43;101055.41;;;5.03;100.00
46836;BME280;32573;51.290;6.926;2023-02-16T01:16:16;101049.38;;;5.04;100.00
46836;BME280;32573;51.290;6.926;2023-02-16T01:18:49;101050.41;;;5.06;100.00
46836;BME280;32573;51.290;6.926;2023-02-16T01:21:29;101047.03;;;5.07;100.00
46836;BME280;32573;51.290;6.926;2023-02-16T01:24:02;101033.22;;;5.08;100.00
46836;BME280;32573;51.290;6.926;2023-02-16T01:26:40;101043.81;;;5.11;100.00
46836;BME280;32573;51.290;6.926;2023-02-16T01:29:21;101042.22;;;5.13;100.00
46836;BME280;32573;51.290;6.926;2023-02-16T01:32:01;101041.50;;;5.15;100.00
46836;BME280;32573;51.290;6.926;2023-02-16T01:34:44;101045.09;;;5.17;100.00
46836;BME280;32573;51.290;6.926;2023-02-16T01:37:18;101045.19;;;5.19;100.00
46836;BME280;32573;51.290;6.926;2023-02-16T01:39:48;101042.81;;;5.22;100.00
46836;BME280;32573;51.290;6.926;2023-02-16T01:42:28;101041.22;;;5.24;100.00
46836;BME280;32573;51.290;6.926;2023-02-16T01:45:03;101044.78;;;5.26;100.00
46836;BME280;32573;51.290;6.926;2023-02-16T01:47:39;101042.28;;;5.28;100.00
46836;BME280;32573;51.290;6.926;2023-02-16T01:50:16;101039.81;;;5.29;100.00
46836;BME280;32573;51.290;6.926;2023-02-16T01:52:54;101044.06;;;5.29;100.00
46836;BME280;32573;51.290;6.926;2023-02-16T01:55:30;101031.00;;;5.27;100.00
46836;BME280;32573;51.290;6.926;2023-02-16T01:58:06;101027.41;;;5.25;100.00
46836;BME280;32573;51.290;6.926;2023-02-16T02:04:15;101031.25;;;5.17;100.00
46836;BME280;32573;51.290;6.926;2023-02-16T02:07:16;101031.84;;;5.13;100.00
46836;BME280;32573;51.290;6.926;2023-02-16T02:09:54;101030.81;;;5.11;100.00
46836;BME280;32573;51.290;6.926;2023-02-16T02:12:35;101034.03;;;5.07;100.00
46836;BME280;32573;51.290;6.926;2023-02-16T02:15:07;101030.34;;;5.03;100.00
46836;BME280;32573;51.290;6.926;2023-02-16T02:17:36;101026.75;;;5.01;100.00
46836;BME280;32573;51.290;6.926;2023-02-16T02:20:16;101029.25;;;5.00;100.00
46836;BME280;32573;51.290;6.926;2023-02-16T02:23:36;101023.84;;;4.96;100.00
46836;BME280;32573;51.290;6.926;2023-02-16T02:29:30;101025.25;;;4.91;100.00
46836;BME280;32573;51.290;6.926;2023-02-16T02:32:17;101020.69;;;4.87;100.00
46836;BME280;32573;51.290;6.926;2023-02-16T02:35:06;101020.38;;;4.83;100.00
46836;BME280;32573;51.290;6.926;2023-02-16T02:37:55;101015.72;;;4.77;100.00
46836;BME280;32573;51.290;6.926;2023-02-16T02:40:40;101011.91;;;4.72;100.00
46836;BME280;32573;51.290;6.926;2023-02-16T02:43:23;101013.41;;;4.68;100.00
46836;BME280;32573;51.290;6.926;2023-02-16T02:46:02;101019.97;;;4.63;100.00
46836;BME280;32573;51.290;6.926;2023-02-16T02:48:35;101015.38;;;4.59;100.00
46836;BME280;32573;51.290;6.926;2023-02-16T02:51:14;101009.22;;;4.57;100.00
46836;BME280;32573;51.290;6.926;2023-02-16T02:54:17;101015.09;;;4.54;100.00
46836;BME280;32573;51.290;6.926;2023-02-16T02:57:15;101006.91;;;4.48;100.00
46836;BME280;32573;51.290;6.926;2023-02-16T03:00:07;101008.31;;;4.43;100.00
46836;BME280;32573;51.290;6.926;2023-02-16T03:03:00;100999.53;;;4.41;100.00
46836;BME280;32573;51.290;6.926;2023-02-16T03:05:38;101002.81;;;4.39;100.00
46836;BME280;32573;51.290;6.926;2023-02-16T03:08:12;100996.63;;;4.37;100.00
46836;BME280;32573;51.290;6.926;2023-02-16T03:10:53;100988.78;;;4.35;100.00
46836;BME280;32573;51.290;6.926;2023-02-16T03:13:43;100993.06;;;4.35;100.00
46836;BME280;32573;51.290;6.926;2023-02-16T03:16:21;100979.28;;;4.36;100.00
46836;BME280;32573;51.290;6.926;2023-02-16T03:19:01;100978.59;;;4.38;100.00
46836;BME280;32573;51.290;6.926;2023-02-16T03:21:50;100970.00;;;4.39;100.00
46836;BME280;32573;51.290;6.926;2023-02-16T03:24:37;100971.81;;;4.40;100.00
46836;BME280;32573;51.290;6.926;2023-02-16T03:27:30;100962.34;;;4.41;100.00
46836;BME280;32573;51.290;6.926;2023-02-16T03:30:23;100965.84;;;4.41;100.00
46836;BME280;32573;51.290;6.926;2023-02-16T03:33:00;100961.75;;;4.45;100.00
46836;BME280;32573;51.290;6.926;2023-02-16T03:35:34;100964.44;;;4.46;100.00
46836;BME280;32573;51.290;6.926;2023-02-16T03:38:04;100961.75;;;4.45;100.00
46836;BME280;32573;51.290;6.926;2023-02-16T03:40:42;100963.47;;;4.44;100.00
46836;BME280;32573;51.290;6.926;2023-02-16T03:43:12;100971.44;;;4.47;100.00
46836;BME280;32573;51.290;6.926;2023-02-16T03:45:48;100968.16;;;4.50;100.00
46836;BME280;32573;51.290;6.926;2023-02-16T03:48:23;100959.47;;;4.49;100.00
46836;BME280;32573;51.290;6.926;2023-02-16T03:50:54;100969.72;;;4.48;100.00
46836;BME280;32573;51.290;6.926;2023-02-16T03:53:26;100969.63;;;4.46;100.00
46836;BME280;32573;51.290;6.926;2023-02-16T03:55:57;100966.84;;;4.43;100.00
46836;BME280;32573;51.290;6.926;2023-02-16T03:58:31;100976.13;;;4.40;100.00
46836;BME280;32573;51.290;6.926;2023-02-16T04:01:04;100964.63;;;4.36;100.00
46836;BME280;32573;51.290;6.926;2023-02-16T04:03:33;100972.22;;;4.33;100.00
46836;BME280;32573;51.290;6.926;2023-02-16T04:06:04;100973.81;;;4.31;100.00
46836;BME280;32573;51.290;6.926;2023-02-16T04:08:35;100973.59;;;4.28;100.00
46836;BME280;32573;51.290;6.926;2023-02-16T04:11:03;100973.19;;;4.22;100.00
46836;BME280;32573;51.290;6.926;2023-02-16T04:13:54;100979.97;;;4.20;100.00
46836;BME280;32573;51.290;6.926;2023-02-16T04:16:26;100977.16;;;4.17;100.00
46836;BME280;32573;51.290;6.926;2023-02-16T04:18:56;100971.78;;;4.14;100.00
46836;BME280;32573;51.290;6.926;2023-02-16T04:21:28;100974.28;;;4.12;100.00
46836;BME280;32573;51.290;6.926;2023-02-16T04:23:57;100963.72;;;4.09;100.00
46836;BME280;32573;51.290;6.926;2023-02-16T04:26:33;100966.00;;;4.04;100.00
46836;BME280;32573;51.290;6.926;2023-02-16T04:29:03;100958.91;;;4.02;100.00
46836;BME280;32573;51.290;6.926;2023-02-16T04:31:36;100960.41;;;3.98;100.00
46836;BME280;32573;51.290;6.926;2023-02-16T04:34:06;100969.88;;;3.98;100.00
46836;BME280;32573;51.290;6.926;2023-02-16T04:36:38;100966.41;;;3.97;100.00
46836;BME280;32573;51.290;6.926;2023-02-16T04:39:08;100973.25;;;3.97;100.00
46836;BME280;32573;51.290;6.926;2023-02-16T04:41:46;100969.75;;;3.96;100.00
46836;BME280;32573;51.290;6.926;2023-02-16T04:44:29;100962.69;;;3.94;100.00
46836;BME280;32573;51.290;6.926;2023-02-16T04:46:58;100969.69;;;3.95;100.00
46836;BME280;32573;51.290;6.926;2023-02-16T04:49:28;100967.78;;;3.92;100.00
46836;BME280;32573;51.290;6.926;2023-02-16T04:52:08;100969.44;;;3.92;100.00
46836;BME280;32573;51.290;6.926;2023-02-16T04:54:38;100974.44;;;3.88;100.00
46836;BME280;32573;51.290;6.926;2023-02-16T04:57:07;100970.94;;;3.88;100.00
46836;BME280;32573;51.290;6.926;2023-02-16T04:59:40;100964.88;;;3.87;100.00
46836;BME280;32573;51.290;6.926;2023-02-16T05:02:10;100964.06;;;3.88;100.00
46836;BME280;32573;51.290;6.926;2023-02-16T05:04:40;100971.75;;;3.87;100.00
46836;BME280;32573;51.290;6.926;2023-02-16T05:07:13;100968.34;;;3.88;100.00
46836;BME280;32573;51.290;6.926;2023-02-16T05:09:50;100971.06;;;3.89;100.00
46836;BME280;32573;51.290;6.926;2023-02-16T05:12:23;100965.19;;;3.92;100.00
46836;BME280;32573;51.290;6.926;2023-02-16T05:15:08;100969.56;;;3.93;100.00
46836;BME280;32573;51.290;6.926;2023-02-16T05:17:37;100973.03;;;3.94;100.00
46836;BME280;32573;51.290;6.926;2023-02-16T05:20:14;100970.56;;;3.95;100.00
46836;BME280;32573;51.290;6.926;2023-02-16T05:22:45;100974.16;;;3.97;100.00
46836;BME280;32573;51.290;6.926;2023-02-16T05:25:17;100968.19;;;3.98;100.00
46836;BME280;32573;51.290;6.926;2023-02-16T05:27:47;100973.47;;;4.00;100.00
46836;BME280;32573;51.290;6.926;2023-02-16T05:30:18;100971.78;;;4.00;100.00
46836;BME280;32573;51.290;6.926;2023-02-16T05:32:48;100969.38;;;4.03;100.00
46836;BME280;32573;51.290;6.926;2023-02-16T05:35:18;100960.84;;;4.04;100.00
46836;BME280;32573;51.290;6.926;2023-02-16T05:37:49;100970.50;;;4.07;100.00
46836;BME280;32573;51.290;6.926;2023-02-16T05:40:18;100975.00;;;4.09;100.00
46836;BME280;32573;51.290;6.926;2023-02-16T05:42:51;100979.38;;;4.10;100.00
46836;BME280;32573;51.290;6.926;2023-02-16T05:45:21;100971.78;;;4.14;100.00
46836;BME280;32573;51.290;6.926;2023-02-16T05:47:49;100975.50;;;4.17;100.00
46836;BME280;32573;51.290;6.926;2023-02-16T05:50:19;100980.75;;;4.19;100.00
46836;BME280;32573;51.290;6.926;2023-02-16T05:52:50;100979.19;;;4.21;100.00
46836;BME280;32573;51.290;6.926;2023-02-16T05:55:21;100975.78;;;4.22;100.00
46836;BME280;32573;51.290;6.926;2023-02-16T05:57:51;100972.41;;;4.23;100.00
46836;BME280;32573;51.290;6.926;2023-02-16T06:00:20;100978.59;;;4.25;100.00
46836;BME280;32573;51.290;6.926;2023-02-16T06:02:49;100971.72;;;4.25;100.00
46836;BME280;32573;51.290;6.926;2023-02-16T06:05:21;100972.72;;;4.27;100.00
46836;BME280;32573;51.290;6.926;2023-02-16T06:07:56;100977.97;;;4.29;100.00
46836;BME280;32573;51.290;6.926;2023-02-16T06:10:26;100962.56;;;4.30;100.00
46836;BME280;32573;51.290;6.926;2023-02-16T06:12:56;100961.03;;;4.34;100.00
46836;BME280;32573;51.290;6.926;2023-02-16T06:15:35;100959.44;;;4.36;100.00
46836;BME280;32573;51.290;6.926;2023-02-16T06:18:05;100967.34;;;4.38;100.00
46836;BME280;32573;51.290;6.926;2023-02-16T06:20:41;100970.25;;;4.42;100.00
46836;BME280;32573;51.290;6.926;2023-02-16T06:23:13;100959.94;;;4.44;100.00
46836;BME280;32573;51.290;6.926;2023-02-16T06:25:48;100963.66;;;4.47;100.00
46836;BME280;32573;51.290;6.926;2023-02-16T06:28:18;100959.47;;;4.49;100.00
46836;BME280;32573;51.290;6.926;2023-02-16T06:30:47;100959.66;;;4.52;100.00
46836;BME280;32573;51.290;6.926;2023-02-16T06:33:18;100955.50;;;4.54;100.00
46836;BME280;32573;51.290;6.926;2023-02-16T06:35:48;100962.66;;;4.59;100.00
46836;BME280;32573;51.290;6.926;2023-02-16T06:38:19;100961.06;;;4.61;100.00
46836;BME280;32573;51.290;6.926;2023-02-16T06:40:50;100969.13;;;4.65;100.00
46836;BME280;32573;51.290;6.926;2023-02-16T06:43:19;100970.22;;;4.69;100.00
46836;BME280;32573;51.290;6.926;2023-02-16T06:45:54;100963.44;;;4.71;100.00
46836;BME280;32573;51.290;6.926;2023-02-16T06:48:23;100977.50;;;4.74;100.00
46836;BME280;32573;51.290;6.926;2023-02-16T06:50:52;100969.81;;;4.76;100.00
46836;BME280;32573;51.290;6.926;2023-02-16T06:53:24;100971.69;;;4.79;100.00
46836;BME280;32573;51.290;6.926;2023-02-16T06:55:55;100969.41;;;4.83;100.00
46836;BME280;32573;51.290;6.926;2023-02-16T06:58:30;100963.53;;;4.86;100.00
46836;BME280;32573;51.290;6.926;2023-02-16T07:00:59;100957.63;;;4.88;100.00
46836;BME280;32573;51.290;6.926;2023-02-16T07:03:32;100976.91;;;4.92;100.00
46836;BME280;32573;51.290;6.926;2023-02-16T07:06:02;100976.28;;;4.96;100.00
46836;BME280;32573;51.290;6.926;2023-02-16T07:08:34;100980.75;;;4.98;100.00
46836;BME280;32573;51.290;6.926;2023-02-16T07:11:03;100977.56;;;5.03;100.00
46836;BME280;32573;51.290;6.926;2023-02-16T07:13:33;100972.56;;;5.06;100.00
46836;BME280;32573;51.290;6.926;2023-02-16T07:16:07;100984.06;;;5.09;100.00
46836;BME280;32573;51.290;6.926;2023-02-16T07:18:44;100976.53;;;5.14;100.00
46836;BME280;32573;51.290;6.926;2023-02-16T07:21:15;100977.63;;;5.17;100.00
46836;BME280;32573;51.290;6.926;2023-02-16T07:23:50;100978.72;;;5.21;100.00
46836;BME280;32573;51.290;6.926;2023-02-16T07:26:25;100973.75;;;5.24;100.00
46836;BME280;32573;51.290;6.926;2023-02-16T07:28:58;100969.63;;;5.28;100.00
46836;BME280;32573;51.290;6.926;2023-02-16T07:31:27;100966.22;;;5.29;100.00
46836;BME280;32573;51.290;6.926;2023-02-16T07:33:56;100967.31;;;5.32;100.00
46836;BME280;32573;51.290;6.926;2023-02-16T07:36:28;100970.91;;;5.34;100.00
46836;BME280;32573;51.290;6.926;2023-02-16T07:39:00;100964.09;;;5.36;100.00
46836;BME280;32573;51.290;6.926;2023-02-16T07:41:35;100966.91;;;5.39;100.00
46836;BME280;32573;51.290;6.926;2023-02-16T07:44:07;100966.06;;;5.40;100.00
46836;BME280;32573;51.290;6.926;2023-02-16T07:46:41;100966.25;;;5.44;100.00
46836;BME280;32573;51.290;6.926;2023-02-16T07:49:13;100972.44;;;5.46;100.00
46836;BME280;32573;51.290;6.926;2023-02-16T07:51:42;100966.53;;;5.48;100.00
46836;BME280;32573;51.290;6.926;2023-02-16T07:54:14;100966.72;;;5.51;100.00
46836;BME280;32573;51.290;6.926;2023-02-16T07:56:43;100966.84;;;5.53;100.00
46836;BME280;32573;51.290;6.926;2023-02-16T07:59:18;100972.19;;;5.56;100.00
46836;BME280;32573;51.290;6.926;2023-02-16T08:01:49;100976.69;;;5.58;100.00
46836;BME280;32573;51.290;6.926;2023-02-16T08:04:19;100989.84;;;5.61;100.00
46836;BME280;32573;51.290;6.926;2023-02-16T08:06:50;100981.44;;;5.66;100.00
46836;BME280;32573;51.290;6.926;2023-02-16T08:09:21;100978.16;;;5.68;100.00
46836;BME280;32573;51.290;6.926;2023-02-16T08:11:54;100981.84;;;5.72;100.00
46836;BME280;32573;51.290;6.926;2023-02-16T08:14:23;100972.53;;;5.75;100.00
46836;BME280;32573;51.290;6.926;2023-02-16T08:16:57;100987.50;;;5.79;100.00
46836;BME280;32573;51.290;6.926;2023-02-16T08:19:28;100971.19;;;5.82;100.00
46836;BME280;32573;51.290;6.926;2023-02-16T08:22:00;100972.25;;;5.86;100.00
46836;BME280;32573;51.290;6.926;2023-02-16T08:24:34;100973.38;;;5.89;100.00
46836;BME280;32573;51.290;6.926;2023-02-16T08:27:08;100983.03;;;5.92;100.00
46836;BME280;32573;51.290;6.926;2023-02-16T08:29:37;100980.66;;;5.95;100.00
46836;BME280;32573;51.290;6.926;2023-02-16T08:32:09;100974.63;;;5.96;100.00
46836;BME280;32573;51.290;6.926;2023-02-16T08:34:39;100978.13;;;5.96;100.00
46836;BME280;32573;51.290;6.926;2023-02-16T08:37:11;100975.53;;;5.96;100.00
46836;BME280;32573;51.290;6.926;2023-02-16T08:39:41;100977.34;;;5.97;100.00
46836;BME280;32573;51.290;6.926;2023-02-16T08:42:10;100989.50;;;5.98;100.00
46836;BME280;32573;51.290;6.926;2023-02-16T08:44:39;100995.59;;;5.99;100.00
46836;BME280;32573;51.290;6.926;2023-02-16T08:47:08;100989.50;;;5.98;100.00
46836;BME280;32573;51.290;6.926;2023-02-16T08:49:36;100982.59;;;5.99;100.00
46836;BME280;32573;51.290;6.926;2023-02-16T08:52:08;100988.78;;;6.01;100.00
46836;BME280;32573;51.290;6.926;2023-02-16T08:54:38;100986.31;;;6.02;100.00
46836;BME280;32573;51.290;6.926;2023-02-16T08:57:08;100985.59;;;6.05;100.00
46836;BME280;32573;51.290;6.926;2023-02-16T08:59:37;100989.25;;;6.09;100.00
46836;BME280;32573;51.290;6.926;2023-02-16T09:02:05;100985.22;;;6.14;100.00
46836;BME280;32573;51.290;6.926;2023-02-16T09:04:34;100986.31;;;6.17;100.00
46836;BME280;32573;51.290;6.926;2023-02-16T09:07:03;100991.84;;;6.23;100.00
46836;BME280;32573;51.290;6.926;2023-02-16T09:09:31;100999.22;;;6.31;100.00
46836;BME280;32573;51.290;6.926;2023-02-16T09:12:00;100983.06;;;6.36;100.00
46836;BME280;32573;51.290;6.926;2023-02-16T09:14:30;100984.31;;;6.43;100.00
46836;BME280;32573;51.290;6.926;2023-02-16T09:16:59;100988.97;;;6.48;100.00
46836;BME280;32573;51.290;6.926;2023-02-16T09:19:31;101003.34;;;6.57;100.00
46836;BME280;32573;51.290;6.926;2023-02-16T09:22:00;100988.97;;;6.63;100.00
46836;BME280;32573;51.290;6.926;2023-02-16T09:24:29;100992.91;;;6.72;100.00
46836;BME280;32573;51.290;6.926;2023-02-16T09:26:58;100990.81;;;6.81;100.00
46836;BME280;32573;51.290;6.926;2023-02-16T09:29:27;100986.13;;;6.90;100.00
46836;BME280;32573;51.290;6.926;2023-02-16T09:31:56;100990.88;;;6.97;100.00
46836;BME280;32573;51.290;6.926;2023-02-16T09:34:25;100986.00;;;7.03;100.00
46836;BME280;32573;51.290;6.926;2023-02-16T09:36:54;100994.22;;;7.11;100.00
46836;BME280;32573;51.290;6.926;2023-02-16T09:39:22;100989.28;;;7.16;100.00
46836;BME280;32573;51.290;6.926;2023-02-16T09:42:03;100995.63;;;7.21;100.00
46836;BME280;32573;51.290;6.926;2023-02-16T09:44:43;100995.09;;;7.26;100.00
46836;BME280;32573;51.290;6.926;2023-02-16T09:47:21;101002.34;;;7.32;100.00
46836;BME280;32573;51.290;6.926;2023-02-16T09:49:51;101004.25;;;7.36;100.00
46836;BME280;32573;51.290;6.926;2023-02-16T09:52:29;101011.44;;;7.40;100.00
46836;BME280;32573;51.290;6.926;2023-02-16T09:55:04;101012.59;;;7.45;100.00
46836;BME280;32573;51.290;6.926;2023-02-16T09:57:47;101023.34;;;7.51;100.00
46836;BME280;32573;51.290;6.926;2023-02-16T10:00:27;101021.91;;;7.56;100.00
46836;BME280;32573;51.290;6.926;2023-02-16T10:03:14;101019.50;;;7.61;100.00
46836;BME280;32573;51.290;6.926;2023-02-16T10:05:49;101017.00;;;7.63;100.00
46836;BME280;32573;51.290;6.926;2023-02-16T10:08:24;101022.38;;;7.66;100.00
46836;BME280;32573;51.290;6.926;2023-02-16T10:10:59;101021.56;;;7.67;100.00
46836;BME280;32573;51.290;6.926;2023-02-16T10:13:35;101028.56;;;7.68;100.00
46836;BME280;32573;51.290;6.926;2023-02-16T10:16:10;101027.75;;;7.69;100.00
46836;BME280;32573;51.290;6.926;2023-02-16T10:18:46;101032.16;;;7.70;100.00
46836;BME280;32573;51.290;6.926;2023-02-16T10:21:21;101021.81;;;7.71;100.00
46836;BME280;32573;51.290;6.926;2023-02-16T10:23:55;101022.72;;;7.72;100.00
46836;BME280;32573;51.290;6.926;2023-02-16T10:26:29;101027.19;;;7.74;100.00
46836;BME280;32573;51.290;6.926;2023-02-16T10:29:04;101023.75;;;7.75;100.00
46836;BME280;32573;51.290;6.926;2023-02-16T10:31:38;101022.97;;;7.76;100.00
46836;BME280;32573;51.290;6.926;2023-02-16T10:34:19;101026.47;;;7.77;100.00
46836;BME280;32573;51.290;6.926;2023-02-16T10:37:02;101027.44;;;7.79;100.00
46836;BME280;32573;51.290;6.926;2023-02-16T10:39:40;101041.34;;;7.80;100.00
46836;BME280;32573;51.290;6.926;2023-02-16T10:42:17;101031.81;;;7.80;100.00
46836;BME280;32573;51.290;6.926;2023-02-16T10:44:53;101025.78;;;7.81;100.00
46836;BME280;32573;51.290;6.926;2023-02-16T10:47:31;101034.59;;;7.83;100.00
46836;BME280;32573;51.290;6.926;2023-02-16T10:50:01;101024.25;;;7.85;100.00
46836;BME280;32573;51.290;6.926;2023-02-16T10:52:33;101027.91;;;7.88;100.00
46836;BME280;32573;51.290;6.926;2023-02-16T10:55:03;101028.00;;;7.90;100.00
46836;BME280;32573;51.290;6.926;2023-02-16T10:57:32;101017.72;;;7.93;100.00
46836;BME280;32573;51.290;6.926;2023-02-16T11:00:04;101016.97;;;7.95;100.00
46836;BME280;32573;51.290;6.926;2023-02-16T11:02:37;101017.13;;;7.98;100.00
46836;BME280;32573;51.290;6.926;2023-02-16T11:05:30;101018.22;;;8.02;100.00
46836;BME280;32573;51.290;6.926;2023-02-16T11:07:59;101013.25;;;8.07;100.00
46836;BME280;32573;51.290;6.926;2023-02-16T11:10:37;101014.38;;;8.12;100.00
46836;BME280;32573;51.290;6.926;2023-02-16T11:13:10;101008.56;;;8.17;100.00
46836;BME280;32573;51.290;6.926;2023-02-16T11:15:49;100998.44;;;8.24;100.00
46836;BME280;32573;51.290;6.926;2023-02-16T11:18:27;100998.03;;;8.32;100.00
46836;BME280;32573;51.290;6.926;2023-02-16T11:20:57;100983.59;;;8.39;100.00
46836;BME280;32573;51.290;6.926;2023-02-16T11:23:29;100989.22;;;8.47;100.00
46836;BME280;32573;51.290;6.926;2023-02-16T11:26:02;100989.59;;;8.54;100.00
46836;BME280;32573;51.290;6.926;2023-02-16T11:28:34;100983.91;;;8.63;100.00
46836;BME280;32573;51.290;6.926;2023-02-16T11:31:12;100974.59;;;8.68;100.00
46836;BME280;32573;51.290;6.926;2023-02-16T11:33:42;100975.78;;;8.75;100.00
46836;BME280;32573;51.290;6.926;2023-02-16T11:36:20;100963.78;;;8.78;100.00
46836;BME280;32573;51.290;6.926;2023-02-16T11:38:57;100961.34;;;8.81;100.00
46836;BME280;32573;51.290;6.926;2023-02-16T11:41:26;100942.38;;;8.85;100.00
46836;BME280;32573;51.290;6.926;2023-02-16T11:43:56;100951.16;;;8.88;100.00
46836;BME280;32573;51.290;6.926;2023-02-16T11:46:25;100953.13;;;8.92;100.00
46836;BME280;32573;51.290;6.926;2023-02-16T11:48:54;100968.84;;;8.93;100.00
46836;BME280;32573;51.290;6.926;2023-02-16T11:51:32;100958.38;;;8.93;100.00
46836;BME280;32573;51.290;6.926;2023-02-16T11:54:04;100963.69;;;8.95;100.00
46836;BME280;32573;51.290;6.926;2023-02-16T11:56:34;100958.59;;;8.98;100.00
46836;BME280;32573;51.290;6.926;2023-02-16T11:59:12;100953.34;;;8.96;100.00
46836;BME280;32573;51.290;6.926;2023-02-16T12:01:56;100951.63;;;8.97;100.00
46836;BME280;32573;51.290;6.926;2023-02-16T12:04:42;100943.78;;;8.97;100.00
46836;BME280;32573;51.290;6.926;2023-02-16T12:07:22;100947.38;;;8.99;100.00
46836;BME280;32573;51.290;6.926;2023-02-16T12:10:03;100938.69;;;9.00;100.00
46836;BME280;32573;51.290;6.926;2023-02-16T12:12:42;100935.09;;;8.98;100.00
46836;BME280;32573;51.290;6.926;2023-02-16T12:15:19;100931.69;;;8.99;100.00
46836;BME280;32573;51.290;6.926;2023-02-16T12:17:56;100943.91;;;9.00;100.00
46836;BME280;32573;51.290;6.926;2023-02-16T12:20:39;100941.38;;;9.01;100.00
46836;BME280;32573;51.290;6.926;2023-02-16T12:23:19;100938.84;;;9.03;100.00
46836;BME280;32573;51.290;6.926;2023-02-16T12:26:00;100927.63;;;9.05;100.00
46836;BME280;32573;51.290;6.926;2023-02-16T12:28:39;100927.81;;;9.09;100.00
46836;BME280;32573;51.290;6.926;2023-02-16T12:31:17;100929.72;;;9.13;100.00
46836;BME280;32573;51.290;6.926;2023-02-16T12:33:53;100929.94;;;9.17;100.00
46836;BME280;32573;51.290;6.926;2023-02-16T12:36:32;100924.03;;;9.21;100.00
46836;BME280;32573;51.290;6.926;2023-02-16T12:39:12;100919.06;;;9.27;100.00
46836;BME280;32573;51.290;6.926;2023-02-16T12:41:53;100921.13;;;9.35;100.00
46836;BME280;32573;51.290;6.926;2023-02-16T12:44:30;100911.78;;;9.40;100.00
46836;BME280;32573;51.290;6.926;2023-02-16T12:47:02;100901.75;;;9.49;100.00
46836;BME280;32573;51.290;6.926;2023-02-16T12:49:38;100902.09;;;9.57;100.00
46836;BME280;32573;51.290;6.926;2023-02-16T12:52:13;100905.91;;;9.65;100.00
46836;BME280;32573;51.290;6.926;2023-02-16T12:54:53;100901.88;;;9.71;100.00
46836;BME280;32573;51.290;6.926;2023-02-16T12:57:25;100901.16;;;9.76;100.00
46836;BME280;32573;51.290;6.926;2023-02-16T13:00:00;100904.81;;;9.79;100.00
46836;BME280;32573;51.290;6.926;2023-02-16T13:02:34;100912.84;;;9.84;100.00
46836;BME280;32573;51.290;6.926;2023-02-16T13:05:08;100912.00;;;9.85;100.00
46836;BME280;32573;51.290;6.926;2023-02-16T13:07:39;100904.16;;;9.85;100.00
46836;BME280;32573;51.290;6.926;2023-02-16T13:10:18;100904.28;;;9.88;100.00
46836;BME280;32573;51.290;6.926;2023-02-16T13:12:52;100897.41;;;9.90;100.00
46836;BME280;32573;51.290;6.926;2023-02-16T13:15:25;100887.91;;;9.92;100.00
46836;BME280;32573;51.290;6.926;2023-02-16T13:18:02;100883.56;;;9.92;100.00
46836;BME280;32573;51.290;6.926;2023-02-16T13:20:32;100883.66;;;9.94;100.00
46836;BME280;32573;51.290;6.926;2023-02-16T13:23:29;100882.00;;;9.96;100.00
46836;BME280;32573;51.290;6.926;2023-02-16T13:26:16;100876.81;;;9.98;100.00
46836;BME280;32573;51.290;6.926;2023-02-16T13:28:58;100868.19;;;10.00;100.00
46836;BME280;32573;51.290;6.926;2023-02-16T13:31:42;100871.84;;;10.04;100.00
46836;BME280;32573;51.290;6.926;2023-02-16T13:34:41;100878.09;;;10.07;100.00
46836;BME280;32573;51.290;6.926;2023-02-16T13:37:21;100874.72;;;10.10;100.00